Orbital elements of SL-14 DEB
| Launched | 17 August 1987 |
| Flight ended | – |
| Launch site | Plesetsk Missile and Space Complex, Russia |
| Owner | Commonwealth of Independent States (former USSR) |
| NORAD ID | 39969 |
| Date fetched |
Epoch osculation |
Inc. [°] |
Ecc. | RA asc node [hr] |
Arg Peri. [°] |
Mean anom [°] |
Mean motion [rev/day] |
Abs. mag |
| Date fetched |
Epoch osculation |
Inc. [°] |
Ecc. | RA asc node [hr] |
Arg Peri. [°] |
Mean anom [°] |
Mean motion [rev/day] |
Abs. mag |
| 2026 May 06 17:57 | 2026 May 02 04:12:31 | 82.4943 | 0.00058 | 19.0669 | 339.3975 | 20.6983 | 14.46650 | – |
| 2026 May 05 17:57 | 2026 May 02 04:12:31 | 82.4943 | 0.00058 | 19.0669 | 339.3975 | 20.6983 | 14.46650 | – |
| 2026 May 04 17:57 | 2026 Apr 27 17:58:00 | 82.4941 | 0.00062 | 19.3286 | 356.1706 | 20.6983 | 14.46650 | – |
| 2026 May 03 17:57 | 2026 Apr 27 17:58:00 | 82.4941 | 0.00062 | 19.3286 | 356.1706 | 20.6983 | 14.46650 | – |
| 2026 May 02 17:57 | 2026 Apr 27 17:58:00 | 82.4941 | 0.00062 | 19.3286 | 356.1706 | 20.6983 | 14.46650 | – |
| 2026 May 01 17:56 | 2026 Apr 27 17:58:00 | 82.4941 | 0.00062 | 19.3286 | 356.1706 | 20.6983 | 14.46650 | – |
| 2026 Apr 30 17:56 | 2026 Apr 27 17:58:00 | 82.4941 | 0.00062 | 19.3286 | 356.1706 | 20.6983 | 14.46650 | – |
| 2026 Apr 29 17:57 | 2026 Apr 22 18:26:24 | 82.4942 | 0.00068 | 19.6229 | 12.3128 | 20.6983 | 14.46650 | – |
| 2026 Apr 28 17:56 | 2026 Apr 22 18:26:24 | 82.4942 | 0.00068 | 19.6229 | 12.3128 | 20.6983 | 14.46650 | – |
| 2026 Apr 27 17:58 | 2026 Apr 22 18:26:24 | 82.4942 | 0.00068 | 19.6229 | 12.3128 | 20.6983 | 14.46650 | – |
| 2026 Apr 26 17:58 | 2026 Apr 22 18:26:24 | 82.4942 | 0.00068 | 19.6229 | 12.3128 | 20.6983 | 14.46650 | – |
| 2026 Apr 25 17:58 | 2026 Apr 22 18:26:24 | 82.4942 | 0.00068 | 19.6229 | 12.3128 | 20.6983 | 14.46650 | – |
| 2026 Apr 24 17:59 | 2026 Apr 22 18:26:24 | 82.4942 | 0.00068 | 19.6229 | 12.3128 | 20.6983 | 14.46650 | – |
| 2026 Apr 23 17:57 | 2026 Apr 19 05:46:22 | 82.4933 | 0.00071 | 19.8314 | 22.5916 | 20.6983 | 14.46650 | – |
| 2026 Apr 22 17:57 | 2026 Apr 19 05:46:22 | 82.4933 | 0.00071 | 19.8314 | 22.5916 | 20.6983 | 14.46650 | – |
| 2026 Apr 21 17:57 | 2026 Apr 19 05:46:22 | 82.4933 | 0.00071 | 19.8314 | 22.5916 | 20.6983 | 14.46650 | – |
| 2026 Apr 20 17:57 | 2026 Apr 19 05:46:22 | 82.4933 | 0.00071 | 19.8314 | 22.5916 | 20.6983 | 14.46650 | – |
| 2026 Apr 19 17:58 | 2026 Apr 19 05:46:22 | 82.4933 | 0.00071 | 19.8314 | 22.5916 | 20.6983 | 14.46650 | – |
| 2026 Apr 18 17:56 | 2026 Apr 12 19:22:33 | 82.4946 | 0.00076 | 20.2116 | 38.5660 | 20.6983 | 14.46650 | – |
| 2026 Apr 16 17:57 | 2026 Apr 12 19:22:33 | 82.4946 | 0.00076 | 20.2116 | 38.5660 | 20.6983 | 14.46650 | – |
| 2026 Apr 14 17:57 | 2026 Apr 12 19:22:33 | 82.4946 | 0.00076 | 20.2116 | 38.5660 | 20.6983 | 14.46650 | – |
| 2026 Apr 13 17:57 | 2026 Apr 12 19:22:33 | 82.4946 | 0.00076 | 20.2116 | 38.5660 | 20.6983 | 14.46650 | – |
| 2026 Apr 12 17:57 | 2026 Apr 08 07:27:40 | 82.4947 | 0.00079 | 20.4773 | 48.9466 | 20.6983 | 14.46650 | – |
| 2026 Apr 11 17:57 | 2026 Apr 08 07:27:40 | 82.4947 | 0.00079 | 20.4773 | 48.9466 | 20.6983 | 14.46650 | – |
| 2026 Apr 10 17:58 | 2026 Apr 08 07:27:40 | 82.4947 | 0.00079 | 20.4773 | 48.9466 | 20.6983 | 14.46650 | – |
| 2026 Apr 09 18:01 | 2026 Apr 08 07:27:40 | 82.4947 | 0.00079 | 20.4773 | 48.9466 | 20.6983 | 14.46650 | – |